KSTC/STC METAR and TAF weather

Enter ICAO airport designator
Station Type Date Time Source
KSTC METAR 2022/09/26 08:53 UTC NOAA

KSTC 260853Z AUTO 31007KT 10SM CLR 07/03 A3000 RMK AO2 SLP169 T00670028 53003


Station Type Date Time Source
KSTC Decoded METAR 2022/09/26 08:53 UTC NOAA

ST. CLOUD REGIONAL AIRPORT, MN, United States (KSTC) 45-33N 094-03W
Sep 26, 2022 - 04:53 AM EDT / 2022.09.26 0853 UTC
Wind: from the NW (310 degrees) at 8 MPH (7 KT):0
Visibility: 10 mile(s):0
Sky conditions: clear
Temperature: 44.1 F (6.7 C)
Dew Point: 37.0 F (2.8 C)
Relative Humidity: 76%
Pressure (altimeter): 30 in. Hg (1015 hPa)
Pressure tendency: 0.01 inches (0.3 hPa) higher than three hours ago
ob: KSTC 260853Z AUTO 31007KT 10SM CLR 07/03 A3000 RMK AO2 SLP169 T00670028 53003
cycle: 9

Station Type Date Time Source
KSTC TAF 2022/09/26 06:22 UTC NOAA

TAF KSTC 260520Z 2606/2706 31008KT P6SM SKC
FM261600 33012G22KT P6SM FEW200
FM270000 34006KT P6SM SKC

Example: see airport list